Time;durP1;ratioP1;P1;durP2;ratioP2;P2;SDS_P1;SDS_P2;PMS_P1;PMS_P2;Temp;Humidity;BMP_temperature;BMP_pressure;BME280_temperature;BME280_humidity;BME280_pressure;Samples;Min_cycle;Max_cycle;Signal;HPM_P1;HPM_P2
2022/10/06 00:00:01;;;;;;;;;;;;;;;13.35;100.00;98765.91;5075156;28;19924;-71
2022/10/06 00:02:27;;;;;;;;;;;;;;;13.43;100.00;98772.69;5074746;28;20406;-71
2022/10/06 00:04:54;;;;;;;;;;;;;;;13.30;100.00;98778.50;5077546;28;19996;-71
2022/10/06 00:07:20;;;;;;;;;;;;;;;13.32;100.00;98769.13;5094287;28;20489;-71
2022/10/06 00:09:48;;;;;;;;;;;;;;;13.58;100.00;98788.88;5076973;28;19975;-71
2022/10/06 00:12:14;;;;;;;;;;;;;;;13.73;100.00;98777.38;5074987;28;19964;-72
2022/10/06 00:14:40;;;;;;;;;;;;;;;13.52;100.00;98781.84;5075576;28;19952;-71
2022/10/06 00:17:07;;;;;;;;;;;;;;;13.65;100.00;98778.69;5077801;28;20592;-71
2022/10/06 00:19:33;;;;;;;;;;;;;;;13.09;100.00;98787.50;5078461;28;19928;-71
2022/10/06 00:22:00;;;;;;;;;;;;;;;13.06;100.00;98794.13;5073909;28;19921;-70
2022/10/06 00:24:26;;;;;;;;;;;;;;;13.28;100.00;98783.28;5074943;28;19935;-71
2022/10/06 00:26:54;;;;;;;;;;;;;;;13.46;100.00;98780.22;5076696;28;19931;-70
2022/10/06 00:29:20;;;;;;;;;;;;;;;13.24;100.00;98779.53;5078070;28;19924;-71
2022/10/06 00:31:46;;;;;;;;;;;;;;;13.50;100.00;98784.78;5077086;28;19963;-70
2022/10/06 00:34:13;;;;;;;;;;;;;;;13.66;100.00;98779.50;5073280;28;19961;-70
2022/10/06 00:36:39;;;;;;;;;;;;;;;13.74;100.00;98782.47;5073667;28;19952;-71
2022/10/06 00:39:05;;;;;;;;;;;;;;;13.38;100.00;98780.69;5077613;28;19955;-71
2022/10/06 00:41:32;;;;;;;;;;;;;;;13.44;100.00;98779.66;5078092;28;19924;-71
2022/10/06 00:44:00;;;;;;;;;;;;;;;13.56;100.00;98780.25;5089974;28;19967;-70
2022/10/06 00:46:32;;;;;;;;;;;;;;;13.48;100.00;98780.75;5072891;28;19978;-70
2022/10/06 00:49:03;;;;;;;;;;;;;;;12.95;100.00;98789.75;5077095;28;19948;-70
2022/10/06 00:51:30;;;;;;;;;;;;;;;12.97;100.00;98780.38;5078111;28;19952;-70
2022/10/06 00:53:57;;;;;;;;;;;;;;;12.84;100.00;98788.06;5074748;28;20018;-71
2022/10/06 00:56:24;;;;;;;;;;;;;;;12.88;100.00;98781.94;5074220;28;20307;-71
2022/10/06 00:58:50;;;;;;;;;;;;;;;13.22;100.00;98782.47;5076369;28;19925;-71
2022/10/06 01:01:18;;;;;;;;;;;;;;;13.02;100.00;98801.09;5077625;28;19979;-71
2022/10/06 01:03:46;;;;;;;;;;;;;;;12.97;100.00;98796.47;5076610;28;19924;-71
2022/10/06 01:06:13;;;;;;;;;;;;;;;13.22;100.00;98803.09;5074053;28;19947;-71
2022/10/06 01:08:40;;;;;;;;;;;;;;;13.25;100.00;98807.97;5074293;28;19924;-71
2022/10/06 01:11:06;;;;;;;;;;;;;;;13.46;100.00;98801.69;5077196;28;19992;-70
2022/10/06 01:13:33;;;;;;;;;;;;;;;13.08;100.00;98804.59;5093018;28;19925;-70
2022/10/06 01:16:02;;;;;;;;;;;;;;;13.17;100.00;98803.91;5074292;28;19967;-70
2022/10/06 01:18:31;;;;;;;;;;;;;;;13.33;100.00;98800.25;5074218;28;20193;-70
2022/10/06 01:21:02;;;;;;;;;;;;;;;13.46;100.00;98807.84;5077288;28;19935;-70
2022/10/06 01:23:30;;;;;;;;;;;;;;;13.57;100.00;98810.56;5077890;28;19991;-71
2022/10/06 01:25:57;;;;;;;;;;;;;;;13.11;100.00;98801.44;5074609;28;20019;-70
2022/10/06 01:28:24;;;;;;;;;;;;;;;13.15;100.00;98799.88;5075356;28;19952;-70
2022/10/06 01:30:51;;;;;;;;;;;;;;;13.19;100.00;98804.44;5080049;28;19931;-71
2022/10/06 01:33:18;;;;;;;;;;;;;;;13.29;100.00;98809.06;5081303;28;19924;-70
2022/10/06 01:35:46;;;;;;;;;;;;;;;12.77;100.00;98801.69;5079895;28;19983;-70
2022/10/06 01:38:12;;;;;;;;;;;;;;;12.99;100.00;98805.09;5077978;28;19925;-71
2022/10/06 01:40:40;;;;;;;;;;;;;;;13.10;100.00;98806.00;5077916;28;19964;-70
2022/10/06 01:43:06;;;;;;;;;;;;;;;13.33;100.00;98807.50;5081479;28;19924;-70
2022/10/06 01:45:33;;;;;;;;;;;;;;;13.25;100.00;98813.31;5080968;28;19924;-71
2022/10/06 01:47:59;;;;;;;;;;;;;;;13.31;100.00;98810.41;5077616;28;19993;-71
2022/10/06 01:50:25;;;;;;;;;;;;;;;12.80;100.00;98806.53;5077480;28;19932;-71
2022/10/06 01:52:52;;;;;;;;;;;;;;;12.99;100.00;98809.63;5079417;28;19984;-71
2022/10/06 01:55:18;;;;;;;;;;;;;;;13.06;100.00;98812.09;5080988;28;19992;-71
2022/10/06 01:57:46;;;;;;;;;;;;;;;13.06;100.00;98809.44;5079766;28;19929;-71
2022/10/06 02:00:12;;;;;;;;;;;;;;;12.91;100.00;98813.59;5077245;28;19950;-71
2022/10/06 02:02:39;;;;;;;;;;;;;;;13.15;100.00;98808.69;5076159;28;19972;-71
2022/10/06 02:05:05;;;;;;;;;;;;;;;12.55;100.00;98818.88;5080372;28;19935;-70
2022/10/06 02:07:32;;;;;;;;;;;;;;;12.77;100.00;98823.13;5078836;28;19931;-71
2022/10/06 02:09:58;;;;;;;;;;;;;;;12.69;100.00;98826.25;5077288;28;19951;-71
2022/10/06 02:12:25;;;;;;;;;;;;;;;12.58;100.00;98826.41;5076037;28;19951;-71
2022/10/06 02:14:52;;;;;;;;;;;;;;;12.57;100.00;98825.59;5077882;28;19925;-70
2022/10/06 02:17:19;;;;;;;;;;;;;;;12.46;100.00;98821.22;5079098;28;19982;-70
2022/10/06 02:19:45;;;;;;;;;;;;;;;12.47;100.00;98838.09;5077808;28;19954;-70
2022/10/06 02:22:11;;;;;;;;;;;;;;;12.43;100.00;98827.09;5075601;28;19936;-70
2022/10/06 02:24:38;;;;;;;;;;;;;;;12.57;100.00;98833.66;5075821;28;19980;-71
2022/10/06 02:27:05;;;;;;;;;;;;;;;12.42;100.00;98830.81;5078865;28;19924;-71
2022/10/06 02:29:32;;;;;;;;;;;;;;;12.56;100.00;98840.09;5079230;28;19924;-71
2022/10/06 02:31:59;;;;;;;;;;;;;;;12.52;100.00;98838.97;5076113;28;19925;-71
2022/10/06 02:34:26;;;;;;;;;;;;;;;12.47;100.00;98844.28;5075829;28;19964;-71
2022/10/06 02:36:52;;;;;;;;;;;;;;;12.71;100.00;98844.78;5076577;28;19948;-71
2022/10/06 02:39:19;;;;;;;;;;;;;;;12.83;100.00;98853.47;5078447;28;19925;-71
2022/10/06 02:41:45;;;;;;;;;;;;;;;12.70;100.00;98849.31;5077283;28;19932;-71
2022/10/06 02:44:12;;;;;;;;;;;;;;;12.86;100.00;98853.78;5075383;28;19932;-70
2022/10/06 02:46:39;;;;;;;;;;;;;;;12.96;100.00;98847.69;5075904;28;20290;-70
2022/10/06 02:49:07;;;;;;;;;;;;;;;12.85;100.00;98857.50;5078674;28;19925;-70
2022/10/06 02:51:34;;;;;;;;;;;;;;;12.99;100.00;98857.91;5078550;28;19963;-70
2022/10/06 02:54:00;;;;;;;;;;;;;;;13.11;100.00;98861.25;5073770;28;19925;-70
2022/10/06 02:56:26;;;;;;;;;;;;;;;12.86;100.00;98861.81;5074678;28;19975;-70
2022/10/06 02:58:53;;;;;;;;;;;;;;;12.96;100.00;98858.41;5076952;28;20000;-71
2022/10/06 03:01:21;;;;;;;;;;;;;;;12.75;100.00;98862.75;5077062;28;19988;-71
2022/10/06 03:03:47;;;;;;;;;;;;;;;12.66;100.00;98866.97;5076951;28;20090;-71
2022/10/06 03:06:22;;;;;;;;;;;;;;;12.67;100.00;98859.72;5074946;28;19993;-71
2022/10/06 03:08:49;;;;;;;;;;;;;;;12.42;100.00;98871.00;5076623;28;19924;-70
2022/10/06 03:11:15;;;;;;;;;;;;;;;12.25;100.00;98876.44;5016576;28;1748764;-70
2022/10/06 03:13:42;;;;;;;;;;;;;;;12.06;100.00;98874.31;5078867;28;19988;-70
2022/10/06 03:16:14;;;;;;;;;;;;;;;11.94;100.00;98870.97;5075807;28;20012;-71
2022/10/06 03:18:40;;;;;;;;;;;;;;;12.18;100.00;98880.34;5076359;28;19932;-71
2022/10/06 03:21:07;;;;;;;;;;;;;;;12.54;100.00;98885.06;5078151;28;19991;-71
2022/10/06 03:23:35;;;;;;;;;;;;;;;12.62;100.00;98878.44;5079427;28;19924;-70
2022/10/06 03:26:01;;;;;;;;;;;;;;;12.63;100.00;98880.88;5075779;28;19925;-70
2022/10/06 03:28:28;;;;;;;;;;;;;;;12.81;100.00;98883.19;5074140;28;19925;-70
2022/10/06 03:31:00;;;;;;;;;;;;;;;12.56;100.00;98885.63;5078077;28;19929;-71
2022/10/06 03:33:26;;;;;;;;;;;;;;;12.59;100.00;98901.22;5079129;28;20011;-71
2022/10/06 03:35:58;;;;;;;;;;;;;;;12.44;100.00;98904.50;5076719;28;19924;-71
2022/10/06 03:38:24;;;;;;;;;;;;;;;12.43;100.00;98900.22;5075495;28;19935;-71
2022/10/06 03:40:52;;;;;;;;;;;;;;;11.84;100.00;98906.44;5076096;28;19968;-72
2022/10/06 03:43:19;;;;;;;;;;;;;;;12.23;100.00;98910.69;5078796;28;19924;-72
2022/10/06 03:45:55;;;;;;;;;;;;;;;11.80;100.00;98914.13;5093829;28;19924;-72
2022/10/06 03:48:21;;;;;;;;;;;;;;;11.73;100.00;98924.19;5074276;28;19925;-72
2022/10/06 03:50:53;;;;;;;;;;;;;;;11.97;100.00;98918.66;5075835;28;19982;-71
2022/10/06 03:53:24;;;;;;;;;;;;;;;11.97;100.00;98929.34;5078819;28;19928;-71
2022/10/06 03:55:50;;;;;;;;;;;;;;;12.26;100.00;98928.13;5076765;28;19924;-71
2022/10/06 03:58:18;;;;;;;;;;;;;;;11.71;100.00;98934.34;5075510;28;19929;-71
2022/10/06 04:00:45;;;;;;;;;;;;;;;12.04;100.00;98940.72;5076408;28;19920;-71
2022/10/06 04:03:12;;;;;;;;;;;;;;;11.96;100.00;98936.56;5078059;28;19924;-71
2022/10/06 04:05:38;;;;;;;;;;;;;;;12.08;100.00;98941.81;5078065;28;19931;-71
2022/10/06 04:08:05;;;;;;;;;;;;;;;12.17;100.00;98943.00;5075039;28;19925;-71
2022/10/06 04:10:32;;;;;;;;;;;;;;;12.41;100.00;98945.19;5074829;28;19925;-71
2022/10/06 04:12:59;;;;;;;;;;;;;;;12.34;100.00;98951.81;5075911;28;19992;-71
2022/10/06 04:15:26;;;;;;;;;;;;;;;12.41;100.00;98949.75;5078210;28;20011;-71
2022/10/06 04:17:54;;;;;;;;;;;;;;;12.21;100.00;98954.84;5075195;28;19931;-71
2022/10/06 04:20:20;;;;;;;;;;;;;;;12.34;100.00;98957.16;5073931;28;20020;-71
2022/10/06 04:22:47;;;;;;;;;;;;;;;12.36;100.00;98942.47;5076302;28;19964;-71
2022/10/06 04:25:13;;;;;;;;;;;;;;;12.15;100.00;98940.59;5093327;28;19988;-71
2022/10/06 04:27:39;;;;;;;;;;;;;;;11.72;100.00;98944.00;5077343;28;19943;-71
2022/10/06 04:30:06;;;;;;;;;;;;;;;12.09;100.00;98954.97;5074575;28;20202;-72
2022/10/06 04:32:34;;;;;;;;;;;;;;;11.59;100.00;98955.00;5074540;28;19925;-71
2022/10/06 04:35:00;;;;;;;;;;;;;;;11.98;100.00;98963.09;5077001;28;19924;-71
2022/10/06 04:37:27;;;;;;;;;;;;;;;12.25;100.00;98970.19;5076269;28;19928;-71
2022/10/06 04:39:54;;;;;;;;;;;;;;;12.09;100.00;98970.22;5074695;28;20563;-71
2022/10/06 04:42:20;;;;;;;;;;;;;;;11.90;100.00;98957.13;5073764;28;19929;-71
2022/10/06 04:44:46;;;;;;;;;;;;;;;12.03;100.00;98965.84;5075516;28;19929;-71
2022/10/06 04:47:13;;;;;;;;;;;;;;;12.00;100.00;98967.16;5077140;28;19928;-71
2022/10/06 04:49:40;;;;;;;;;;;;;;;12.17;100.00;98967.09;5077091;28;20395;-71
2022/10/06 04:52:07;;;;;;;;;;;;;;;12.07;100.00;98967.78;5073609;28;19960;-71
2022/10/06 04:54:33;;;;;;;;;;;;;;;12.17;100.00;98967.09;5073500;28;20000;-71
2022/10/06 04:57:00;;;;;;;;;;;;;;;11.91;100.00;98969.41;5076540;28;19963;-71
2022/10/06 05:00:21;;;;;;;;;;;;;;;11.74;100.00;98978.53;5092760;28;19960;-70
2022/10/06 05:02:12;;;;;;;;;;;;;;;11.77;100.00;98994.91;5066863;28;19970;-72
2022/10/06 05:04:40;;;;;;;;;;;;;;;11.57;100.00;98999.94;5072744;28;19925;-71
2022/10/06 05:07:06;;;;;;;;;;;;;;;11.70;100.00;99001.47;5077206;28;20555;-70
2022/10/06 05:09:33;;;;;;;;;;;;;;;11.34;100.00;99006.22;5076886;28;19925;-71
2022/10/06 05:11:59;;;;;;;;;;;;;;;11.60;100.00;99003.97;5073899;28;19960;-71
2022/10/06 05:14:25;;;;;;;;;;;;;;;11.76;100.00;99021.94;5073534;28;19996;-71
2022/10/06 05:16:52;;;;;;;;;;;;;;;11.46;100.00;99022.19;5075737;28;20011;-71
2022/10/06 05:19:18;;;;;;;;;;;;;;;11.48;100.00;99028.09;5077094;28;19987;-72
2022/10/06 05:21:46;;;;;;;;;;;;;;;11.63;100.00;99020.34;5076231;28;19921;-72
2022/10/06 05:24:12;;;;;;;;;;;;;;;11.72;100.00;99020.78;5073631;28;19925;-72
2022/10/06 05:26:39;;;;;;;;;;;;;;;11.59;100.00;99027.25;5072279;28;19971;-72
2022/10/06 05:29:05;;;;;;;;;;;;;;;11.84;100.00;99033.03;5076832;28;19924;-72
2022/10/06 05:31:33;;;;;;;;;;;;;;;11.91;100.00;99033.66;5076972;28;20085;-72
2022/10/06 05:34:00;;;;;;;;;;;;;;;11.76;100.00;99020.03;5074008;28;19925;-72
2022/10/06 05:36:27;;;;;;;;;;;;;;;12.01;100.00;99032.22;5073202;28;19929;-72
2022/10/06 05:38:56;;;;;;;;;;;;;;;11.85;100.00;99041.88;5091031;28;19959;-72
2022/10/06 05:41:23;;;;;;;;;;;;;;;11.68;100.00;99033.81;5076682;28;19967;-72
2022/10/06 05:43:50;;;;;;;;;;;;;;;11.86;100.00;99041.63;5075505;28;20098;-72
2022/10/06 05:46:19;;;;;;;;;;;;;;;11.96;100.00;99040.16;5073288;28;20009;-72
2022/10/06 05:48:46;;;;;;;;;;;;;;;12.27;100.00;99044.94;5075403;28;19925;-72
2022/10/06 05:51:13;;;;;;;;;;;;;;;12.24;100.00;99048.91;5078093;28;19920;-72
2022/10/06 05:53:40;;;;;;;;;;;;;;;12.21;100.00;99051.25;5092578;28;20397;-72
2022/10/06 05:56:09;;;;;;;;;;;;;;;12.30;100.00;99057.81;5072881;28;19932;-72
2022/10/06 05:58:36;;;;;;;;;;;;;;;12.29;100.00;99054.34;5073662;28;19984;-71
2022/10/06 06:01:06;;;;;;;;;;;;;;;11.94;100.00;99066.38;5063869;28;19932;-72
2022/10/06 06:03:33;;;;;;;;;;;;;;;11.73;100.00;99055.31;5073877;28;19924;-72
2022/10/06 06:05:59;;;;;;;;;;;;;;;11.81;100.00;99065.66;5076693;28;19935;-72
2022/10/06 06:08:25;;;;;;;;;;;;;;;11.38;100.00;99073.41;5077021;28;20035;-72
2022/10/06 06:10:52;;;;;;;;;;;;;;;11.43;100.00;99073.50;5074384;28;19924;-73
2022/10/06 06:13:21;;;;;;;;;;;;;;;11.24;100.00;99072.88;5073135;28;19929;-72
2022/10/06 06:16:03;;;;;;;;;;;;;;;11.33;100.00;99075.97;5076660;28;20000;-72
2022/10/06 06:18:29;;;;;;;;;;;;;;;11.19;100.00;99082.66;5080044;28;19924;-71
2022/10/06 06:20:56;;;;;;;;;;;;;;;11.47;100.00;99081.84;5076954;28;19996;-72
2022/10/06 06:23:23;;;;;;;;;;;;;;;11.46;100.00;99089.06;5078300;28;19925;-71
2022/10/06 06:25:56;;;;;;;;;;;;;;;11.40;100.00;99090.03;5077580;28;19924;-72
2022/10/06 06:28:24;;;;;;;;;;;;;;;11.31;100.00;99096.81;5075793;28;19988;-72
2022/10/06 06:30:57;;;;;;;;;;;;;;;11.15;100.00;99092.22;5078466;28;19925;-72
2022/10/06 06:33:24;;;;;;;;;;;;;;;11.50;100.00;99116.16;5078933;28;19925;-73
2022/10/06 06:35:50;;;;;;;;;;;;;;;11.80;100.00;99120.22;5078258;28;19945;-73
2022/10/06 06:38:17;;;;;;;;;;;;;;;11.70;100.00;99120.03;5076285;28;20012;-72
2022/10/06 06:40:44;;;;;;;;;;;;;;;11.47;100.00;99121.97;5077531;28;19925;-72
2022/10/06 06:43:11;;;;;;;;;;;;;;;11.76;100.00;99131.66;5079245;28;20012;-72
2022/10/06 06:45:39;;;;;;;;;;;;;;;11.69;100.00;99129.09;5080309;28;19983;-72
2022/10/06 06:48:05;;;;;;;;;;;;;;;11.81;100.00;99129.88;5068664;28;19925;-72
2022/10/06 06:50:32;;;;;;;;;;;;;;;11.78;100.00;99141.06;5075035;28;19984;-72
2022/10/06 06:53:01;;;;;;;;;;;;;;;11.70;100.00;99138.75;5079298;28;19963;-72
2022/10/06 06:55:27;;;;;;;;;;;;;;;11.76;100.00;99147.72;5080143;28;19935;-72
2022/10/06 06:57:54;;;;;;;;;;;;;;;11.83;100.00;99154.53;5077913;28;19924;-73
2022/10/06 07:00:22;;;;;;;;;;;;;;;11.82;100.00;99144.09;5076031;28;19952;-71
2022/10/06 07:02:59;;;;;;;;;;;;;;;11.77;100.00;99150.16;5076096;28;19928;-71
2022/10/06 07:05:26;;;;;;;;;;;;;;;11.84;100.00;99145.47;5079086;28;19924;-71
2022/10/06 07:07:52;;;;;;;;;;;;;;;11.67;100.00;99157.94;5075606;28;19924;-71
2022/10/06 07:10:18;;;;;;;;;;;;;;;11.67;100.00;99155.28;5075660;28;20007;-72
2022/10/06 07:12:45;;;;;;;;;;;;;;;11.71;100.00;99167.16;5074975;28;19960;-72
2022/10/06 07:26:09;;;;;;;;;;;;;;;11.58;100.00;99178.13;5082512;28;19966;-72
2022/10/06 07:28:35;;;;;;;;;;;;;;;11.52;100.00;99183.59;5075971;28;19975;-72
2022/10/06 07:31:02;;;;;;;;;;;;;;;11.54;100.00;99186.88;5078711;28;19924;-72
2022/10/06 07:33:31;;;;;;;;;;;;;;;11.64;100.00;99182.50;5095051;28;19935;-72
2022/10/06 07:35:57;;;;;;;;;;;;;;;11.71;100.00;99193.94;5076419;28;19971;-72
2022/10/06 07:38:24;;;;;;;;;;;;;;;11.84;100.00;99190.16;5075623;28;19925;-72
2022/10/06 07:40:54;;;;;;;;;;;;;;;12.04;100.00;99189.72;5077219;28;19993;-72
2022/10/06 07:43:21;;;;;;;;;;;;;;;12.08;100.00;99196.19;5094248;28;19946;-72
2022/10/06 07:45:48;;;;;;;;;;;;;;;12.15;100.00;99196.84;5077342;28;19988;-72
2022/10/06 07:48:16;;;;;;;;;;;;;;;12.13;100.00;99191.72;5073580;28;19971;-71
2022/10/06 07:50:46;;;;;;;;;;;;;;;12.24;100.00;99198.09;5075624;28;20023;-71
2022/10/06 07:53:13;;;;;;;;;;;;;;;12.30;100.00;99199.78;5078612;28;19994;-72
2022/10/06 07:55:39;;;;;;;;;;;;;;;12.27;100.00;99202.97;5078277;28;19929;-72
2022/10/06 07:58:10;;;;;;;;;;;;;;;12.30;100.00;99199.78;5075243;28;20396;-72
2022/10/06 08:00:36;;;;;;;;;;;;;;;12.35;100.00;99205.22;5075150;28;19988;-72
2022/10/06 08:03:02;;;;;;;;;;;;;;;12.40;100.00;99214.19;5077109;28;19920;-72
2022/10/06 08:05:29;;;;;;;;;;;;;;;12.52;100.00;99216.78;5078436;28;19992;-72
2022/10/06 08:07:57;;;;;;;;;;;;;;;12.59;100.00;99213.94;5075867;28;19959;-72
2022/10/06 08:10:23;;;;;;;;;;;;;;;12.62;100.00;99216.94;5073655;28;20013;-72
2022/10/06 08:12:49;;;;;;;;;;;;;;;12.70;100.00;99215.72;5074907;28;19928;-72
2022/10/06 08:15:17;;;;;;;;;;;;;;;12.70;100.00;99224.56;5078703;28;19931;-74
2022/10/06 08:17:44;;;;;;;;;;;;;;;12.78;100.00;99223.34;5078350;28;19920;-73
2022/10/06 08:20:11;;;;;;;;;;;;;;;12.91;100.00;99226.50;5074946;28;20000;-73
2022/10/06 08:22:38;;;;;;;;;;;;;;;12.99;100.00;99228.78;5074908;28;19929;-74
2022/10/06 08:25:08;;;;;;;;;;;;;;;13.08;100.00;99218.47;5066789;28;19924;-73
2022/10/06 08:27:35;;;;;;;;;;;;;;;13.18;100.00;99228.53;5073921;28;19947;-73
2022/10/06 08:30:02;;;;;;;;;;;;;;;13.33;100.00;99228.72;5076915;28;19925;-73
2022/10/06 08:32:29;;;;;;;;;;;;;;;13.52;100.00;99225.47;5078443;28;19931;-73
2022/10/06 08:34:55;;;;;;;;;;;;;;;13.55;100.00;99234.91;5075809;28;19939;-73
2022/10/06 08:37:22;;;;;;;;;;;;;;;13.56;100.00;99225.78;5074247;28;19960;-72
2022/10/06 08:39:49;;;;;;;;;;;;;;;13.65;100.00;99231.56;5076056;28;19928;-73
2022/10/06 08:42:20;;;;;;;;;;;;;;;13.75;100.00;99232.47;5093648;28;20008;-73
2022/10/06 08:44:47;;;;;;;;;;;;;;;13.90;100.00;99231.81;5076745;28;19967;-73
2022/10/06 08:47:16;;;;;;;;;;;;;;;14.09;100.00;99227.72;5073327;28;20019;-74
2022/10/06 08:49:44;;;;;;;;;;;;;;;14.14;100.00;99227.78;5075068;28;20776;-73
2022/10/06 08:52:19;;;;;;;;;;;;;;;14.29;100.00;99221.75;5076807;28;19920;-74
2022/10/06 08:54:48;;;;;;;;;;;;;;;14.08;100.00;99216.16;5076022;28;20368;-73
2022/10/06 08:57:17;;;;;;;;;;;;;;;14.36;100.00;99227.75;5094188;28;19988;-73
2022/10/06 08:59:46;;;;;;;;;;;;;;;14.29;100.00;99222.56;5077603;28;19950;-73
2022/10/06 09:02:28;;;;;;;;;;;;;;;14.55;100.00;99220.91;5075076;28;19936;-73
2022/10/06 09:04:56;;;;;;;;;;;;;;;14.66;100.00;99216.44;5076460;28;20019;-73
2022/10/06 09:07:26;;;;;;;;;;;;;;;14.70;100.00;99214.88;5077260;28;19924;-74
2022/10/06 09:09:58;;;;;;;;;;;;;;;14.78;100.00;99209.00;5075886;28;19963;-73
2022/10/06 09:12:30;;;;;;;;;;;;;;;14.88;100.00;99215.28;5073742;28;19924;-77
2022/10/06 09:15:03;;;;;;;;;;;;;;;14.95;100.00;99226.59;5076671;28;19992;-77
2022/10/06 09:17:32;;;;;;;;;;;;;;;15.05;100.00;99221.28;5077500;28;19995;-74
2022/10/06 09:20:01;;;;;;;;;;;;;;;15.02;100.00;99215.59;5091064;28;19932;-74
2022/10/06 09:22:30;;;;;;;;;;;;;;;15.20;100.00;99223.25;5074631;28;19952;-74
2022/10/06 09:24:58;;;;;;;;;;;;;;;15.12;100.00;99216.50;5077248;28;19968;-73
2022/10/06 09:27:28;;;;;;;;;;;;;;;15.26;100.00;99227.59;5077588;28;19960;-73
2022/10/06 09:29:55;;;;;;;;;;;;;;;15.41;100.00;99218.81;5074066;28;19929;-74
2022/10/06 09:32:23;;;;;;;;;;;;;;;15.40;100.00;99222.56;5074772;28;20307;-73
2022/10/06 09:34:51;;;;;;;;;;;;;;;15.49;100.00;99221.00;5076322;28;19971;-73
2022/10/06 09:37:18;;;;;;;;;;;;;;;15.61;100.00;99218.91;5078150;28;19948;-74
2022/10/06 09:39:47;;;;;;;;;;;;;;;15.52;100.00;99220.47;5092202;28;20027;-73
2022/10/06 09:42:17;;;;;;;;;;;;;;;15.39;100.00;99232.50;5074036;28;19996;-74
2022/10/06 09:44:48;;;;;;;;;;;;;;;15.64;100.00;99223.75;5074690;28;19972;-74
2022/10/06 09:47:31;;;;;;;;;;;;;;;15.89;100.00;99225.72;5075914;28;19924;-72
2022/10/06 09:50:02;;;;;;;;;;;;;;;16.00;100.00;99219.31;5075400;28;20010;-73
2022/10/06 09:52:29;;;;;;;;;;;;;;;16.15;100.00;99212.03;5076620;28;19925;-79
2022/10/06 09:55:03;;;;;;;;;;;;;;;16.17;100.00;99226.06;5080650;28;19925;-73
2022/10/06 09:57:30;;;;;;;;;;;;;;;16.28;100.00;99223.41;5081125;28;19924;-73
2022/10/06 09:59:57;;;;;;;;;;;;;;;16.34;100.00;99217.72;5078889;28;19964;-73
2022/10/06 10:02:30;;;;;;;;;;;;;;;16.70;100.00;99221.28;5077719;28;19975;-73
2022/10/06 10:04:57;;;;;;;;;;;;;;;16.94;100.00;99216.94;5080677;28;19975;-74
2022/10/06 10:07:24;;;;;;;;;;;;;;;17.01;100.00;99217.47;5096908;28;20219;-74
2022/10/06 10:09:51;;;;;;;;;;;;;;;16.71;100.00;99212.13;5078301;28;19971;-73
2022/10/06 10:12:26;;;;;;;;;;;;;;;16.93;100.00;99214.53;5077415;28;20303;-73
2022/10/06 10:14:52;;;;;;;;;;;;;;;16.85;100.00;99223.97;5079231;28;19924;-73
2022/10/06 10:17:21;;;;;;;;;;;;;;;17.21;100.00;99222.00;5081410;28;19924;-74
2022/10/06 10:19:52;;;;;;;;;;;;;;;17.01;100.00;99227.44;5079846;28;19924;-74
2022/10/06 10:22:22;;;;;;;;;;;;;;;16.68;100.00;99218.06;5077755;28;19924;-74
2022/10/06 10:24:54;;;;;;;;;;;;;;;17.03;100.00;99223.38;5078578;28;19956;-73
2022/10/06 10:27:23;;;;;;;;;;;;;;;16.93;100.00;99220.69;5081680;28;19936;-74
2022/10/06 10:29:58;;;;;;;;;;;;;;;16.94;100.00;99229.63;5079921;28;19931;-74
2022/10/06 10:32:28;;;;;;;;;;;;;;;17.30;100.00;99231.16;5076923;28;19996;-76
2022/10/06 10:35:02;;;;;;;;;;;;;;;17.31;100.00;99240.06;5080052;28;20003;-75
2022/10/06 10:37:33;;;;;;;;;;;;;;;17.40;100.00;99249.22;5096869;28;19935;-75
2022/10/06 10:40:02;;;;;;;;;;;;;;;17.44;100.00;99242.19;5076229;28;19932;-76
2022/10/06 10:42:31;;;;;;;;;;;;;;;17.51;100.00;99246.22;5092748;28;19951;-74
2022/10/06 10:44:59;;;;;;;;;;;;;;;17.31;100.00;99242.75;5079509;28;20600;-73
2022/10/06 10:47:28;;;;;;;;;;;;;;;17.36;100.00;99240.84;5080079;28;19932;-75
2022/10/06 10:49:58;;;;;;;;;;;;;;;17.38;100.00;99246.81;5079016;28;19924;-74
2022/10/06 10:52:29;;;;;;;;;;;;;;;17.43;100.00;99260.28;5093540;28;19960;-75
2022/10/06 10:55:03;;;;;;;;;;;;;;;16.80;100.00;99247.44;5078932;28;19925;-74
2022/10/06 10:57:34;;;;;;;;;;;;;;;17.23;100.00;99252.25;5080423;28;19925;-73
2022/10/06 11:00:02;;;;;;;;;;;;;;;17.58;100.00;99260.25;5077901;28;19936;-74
2022/10/06 11:02:30;;;;;;;;;;;;;;;17.66;100.00;99256.19;5077611;28;19925;-74
2022/10/06 11:04:58;;;;;;;;;;;;;;;17.58;100.00;99254.03;5079641;28;19984;-74
2022/10/06 11:07:28;;;;;;;;;;;;;;;17.60;100.00;99250.00;5080369;28;19924;-74
2022/10/06 11:10:01;;;;;;;;;;;;;;;17.54;100.00;99259.19;5093596;28;20015;-73
2022/10/06 11:12:39;;;;;;;;;;;;;;;17.48;100.00;99264.88;5076903;28;19925;-73
2022/10/06 11:15:10;;;;;;;;;;;;;;;17.17;100.00;99262.25;5069020;28;19992;-73
2022/10/06 11:17:43;;;;;;;;;;;;;;;17.24;100.00;99257.34;5076206;28;19988;-73
2022/10/06 11:20:21;;;;;;;;;;;;;;;17.63;100.00;99256.75;5067819;28;19947;-74
2022/10/06 11:22:53;;;;;;;;;;;;;;;17.43;100.00;99262.97;5076393;28;19925;-74
2022/10/06 11:25:22;;;;;;;;;;;;;;;17.75;100.00;99244.53;5079556;28;19925;-74
2022/10/06 11:27:55;;;;;;;;;;;;;;;17.88;100.00;99250.44;5076672;28;19970;-73
2022/10/06 11:30:25;;;;;;;;;;;;;;;17.95;100.00;99248.25;5075480;28;20020;-74
2022/10/06 11:33:00;;;;;;;;;;;;;;;17.93;100.00;99256.63;5076651;28;19928;-74
2022/10/06 11:35:27;;;;;;;;;;;;;;;17.95;100.00;99251.72;5078798;28;19966;-74
2022/10/06 11:37:59;;;;;;;;;;;;;;;17.87;100.00;99259.63;5076598;28;20015;-74
2022/10/06 11:40:40;;;;;;;;;;;;;;;17.89;100.00;99257.47;5076302;28;19924;-74
2022/10/06 11:43:11;;;;;;;;;;;;;;;17.89;100.00;99250.13;5067091;28;19925;-74
2022/10/06 11:45:43;;;;;;;;;;;;;;;17.88;100.00;99256.66;5074299;28;19925;-72
2022/10/06 11:48:22;;;;;;;;;;;;;;;17.91;100.00;99247.97;5066124;28;19925;-73
2022/10/06 11:50:51;;;;;;;;;;;;;;;17.87;100.00;99238.81;5076894;28;19959;-74
2022/10/06 11:53:36;;;;;;;;;;;;;;;17.34;100.00;99237.63;5078682;28;19928;-74
2022/10/06 11:56:22;;;;;;;;;;;;;;;17.93;100.00;99243.09;5075716;28;19980;-74
2022/10/06 11:59:07;;;;;;;;;;;;;;;18.09;100.00;99241.13;5075009;28;20281;-73
2022/10/06 12:01:48;;;;;;;;;;;;;;;18.17;100.00;99249.44;5077497;28;19924;-73
2022/10/06 12:04:16;;;;;;;;;;;;;;;18.24;100.00;99235.63;5068531;28;19936;-73
2022/10/06 12:06:53;;;;;;;;;;;;;;;18.27;100.00;99238.56;5075795;28;19952;-73
2022/10/06 12:09:39;;;;;;;;;;;;;;;18.28;100.00;99240.19;5078351;28;20023;-73
2022/10/06 12:12:31;;;;;;;;;;;;;;;18.27;100.00;99243.97;5065911;28;19999;-74
2022/10/06 12:15:02;;;;;;;;;;;;;;;18.04;100.00;99243.88;5077561;28;19924;-73
2022/10/06 12:17:32;;;;;;;;;;;;;;;17.73;100.00;99237.81;5078522;28;19924;-72
2022/10/06 12:20:08;;;;;;;;;;;;;;;17.89;100.00;99243.94;5075624;28;19924;-78
2022/10/06 12:22:37;;;;;;;;;;;;;;;17.98;100.00;99240.34;5092073;28;20281;-79
2022/10/06 12:25:05;;;;;;;;;;;;;;;17.94;100.00;99235.81;5067103;28;19924;-76
2022/10/06 12:27:41;;;;;;;;;;;;;;;18.22;100.00;99244.03;5076598;28;19979;-76
2022/10/06 12:30:18;;;;;;;;;;;;;;;18.55;100.00;99230.81;5067104;28;19967;-73
2022/10/06 12:32:48;;;;;;;;;;;;;;;18.52;100.00;99229.50;5075851;28;20403;-73
2022/10/06 12:35:22;;;;;;;;;;;;;;;18.68;100.00;99230.19;5094117;28;19960;-73
2022/10/06 12:37:51;;;;;;;;;;;;;;;18.66;100.00;99226.97;5076175;28;19932;-72
2022/10/06 12:40:36;;;;;;;;;;;;;;;18.62;100.00;99228.63;5073479;28;19999;-73
2022/10/06 12:43:21;;;;;;;;;;;;;;;18.66;100.00;99232.38;5078155;28;19957;-73
2022/10/06 12:45:53;;;;;;;;;;;;;;;18.85;100.00;99225.16;5076417;28;19924;-73
2022/10/06 12:48:22;;;;;;;;;;;;;;;18.61;100.00;99221.56;5089923;28;20319;-72
2022/10/06 12:50:52;;;;;;;;;;;;;;;18.30;100.00;99231.78;5074853;28;19960;-73
2022/10/06 12:53:24;;;;;;;;;;;;;;;18.10;100.00;99234.63;5077797;28;19924;-75